Terminal Aerodrome Forecast
Issued by NWS Wilmington, OH

Home | Current Version | Previous Version | Text Only | Print | Product List | Glossary On
Versions: 1 2 3 4 5 6 7 8 9 10 11 12 13 14 15 16 17 18 19 20 21 22 23 24 25
982
FTUS41 KILN 292335
TAFILN
TAF
KILN 292335Z 3000/3024 03006KT P6SM SCT250
      TEMPO 3008/3012 4SM BR
     FM301500 04005KT P6SM SCT250=

USA.gov is the U.S. government's official web portal to all federal, state and local government web resources and services.